createdAt,value
2023-10-01T00:00:10.604Z,6.5
2023-10-01T00:12:00.273Z,8
2023-10-01T00:24:00.186Z,12
2023-10-01T00:36:00.455Z,13
2023-10-01T00:48:00.333Z,13
2023-10-01T01:00:00.284Z,15
2023-10-01T01:12:00.319Z,14.5
2023-10-01T01:24:00.428Z,13.5
2023-10-01T01:36:00.332Z,13.5
2023-10-01T01:48:00.380Z,13.5
2023-10-01T02:00:00.237Z,11
2023-10-01T02:12:00.482Z,8.5
2023-10-01T02:24:00.373Z,8.5
2023-10-01T02:36:00.418Z,10
2023-10-01T02:48:00.544Z,11
2023-10-01T03:00:00.481Z,11
2023-10-01T03:12:00.425Z,10
2023-10-01T03:24:00.384Z,9.5
2023-10-01T03:36:00.540Z,10
2023-10-01T03:48:00.520Z,10.5
2023-10-01T04:00:00.494Z,11
2023-10-01T04:12:00.439Z,10.5
2023-10-01T04:24:00.574Z,10
2023-10-01T04:36:00.521Z,10
2023-10-01T04:48:00.464Z,11
2023-10-01T05:00:00.630Z,11.5
2023-10-01T05:12:00.592Z,11.5
2023-10-01T05:24:00.535Z,11
2023-10-01T05:36:00.535Z,10.5
2023-10-01T05:48:00.665Z,9.5
2023-10-01T06:00:00.627Z,11.5
2023-10-01T06:12:00.600Z,11.5
2023-10-01T06:24:00.570Z,12
2023-10-01T06:36:00.690Z,12
2023-10-01T06:48:00.717Z,14.5
2023-10-01T07:00:00.649Z,13.5
2023-10-01T07:12:00.768Z,12
2023-10-01T07:24:00.846Z,11
2023-10-01T07:36:01.689Z,13.5
2023-10-01T07:48:00.684Z,13
2023-10-01T08:00:00.831Z,12.5
2023-10-01T08:12:00.800Z,10.5
2023-10-01T08:24:00.699Z,13
2023-10-01T08:36:00.686Z,15.5
2023-10-01T08:48:00.822Z,17
2023-10-01T09:00:00.845Z,16.5
2023-10-01T09:12:00.754Z,16.5
2023-10-01T09:24:00.918Z,18
2023-10-01T09:36:01.029Z,17.5
2023-10-01T09:48:00.975Z,18
2023-10-01T10:00:01.237Z,17.5
2023-10-01T10:12:01.476Z,19
2023-10-01T10:24:02.737Z,20.5
2023-10-01T10:36:00.991Z,21
2023-10-01T10:48:00.974Z,22.5
2023-10-01T11:00:01.099Z,23
2023-10-01T11:12:00.997Z,23
2023-10-01T11:24:00.961Z,22.5
2023-10-01T11:36:01.320Z,24
2023-10-01T11:48:01.085Z,24
2023-10-01T12:00:00.991Z,25.5
2023-10-01T12:12:01.056Z,25
2023-10-01T12:24:01.098Z,24
2023-10-01T12:36:01.081Z,23.5
2023-10-01T12:48:01.159Z,21.5
2023-10-01T13:00:01.077Z,21.5
2023-10-01T13:12:01.537Z,20.5
2023-10-01T13:24:01.224Z,21
2023-10-01T13:36:01.077Z,21
2023-10-01T13:48:01.272Z,22.5
2023-10-01T14:00:01.051Z,22.5
2023-10-01T14:12:01.265Z,23
2023-10-01T14:24:01.155Z,21.5
2023-10-01T14:36:01.084Z,21.5
2023-10-01T14:48:01.059Z,21.5
2023-10-01T15:00:01.141Z,21.5
2023-10-01T15:12:01.380Z,21
2023-10-01T15:24:01.307Z,21
2023-10-01T15:36:01.176Z,21
2023-10-01T15:48:01.317Z,20
2023-10-01T16:00:01.252Z,21
2023-10-01T16:12:01.293Z,21
2023-10-01T16:24:01.291Z,20.5
2023-10-01T16:36:01.394Z,21
2023-10-01T16:48:01.319Z,20.5
2023-10-01T17:00:01.357Z,19.5
2023-10-01T17:12:01.237Z,19
2023-10-01T17:24:01.377Z,18
2023-10-01T17:36:01.353Z,18
2023-10-01T17:48:01.393Z,17.5
2023-10-01T18:00:02.193Z,16.5
2023-10-01T18:12:02.381Z,16.5
2023-10-01T18:24:01.632Z,16.5
2023-10-01T18:36:01.580Z,16.5
2023-10-01T18:48:01.488Z,16.5
2023-10-01T19:00:01.451Z,16.5
2023-10-01T19:12:01.401Z,15.5
2023-10-01T19:24:01.643Z,15.5
2023-10-01T19:36:01.478Z,15.5
2023-10-01T19:48:01.566Z,15.5
2023-10-01T20:00:01.468Z,15.5
2023-10-01T20:12:01.672Z,15.5
2023-10-01T20:24:01.661Z,15.5
2023-10-01T20:36:01.512Z,15.5
2023-10-01T21:00:01.658Z,15.5
2023-10-01T21:12:02.134Z,15.5
2023-10-01T21:24:01.570Z,15.5
2023-10-01T21:36:01.650Z,14.5
2023-10-01T21:48:01.638Z,15
2023-10-01T22:00:01.530Z,15
2023-10-01T22:12:02.022Z,15.5
2023-10-01T22:24:01.714Z,16
2023-10-01T22:36:01.653Z,15.5
2023-10-01T22:48:01.596Z,15.5
2023-10-01T23:00:01.579Z,15.5
2023-10-01T23:12:01.742Z,15.5
2023-10-01T23:24:01.836Z,15.5
2023-10-01T23:36:01.658Z,15.5
2023-10-01T23:48:02.243Z,15.5
